Time;durP1;ratioP1;P1;durP2;ratioP2;P2;SDS_P1;SDS_P2;PMS_P1;PMS_P2;Temp;Humidity;BMP_temperature;BMP_pressure;BME280_temperature;BME280_humidity;BME280_pressure;Samples;Min_cycle;Max_cycle;Signal;HPM_P1;HPM_P2
2023/03/16 00:00:51;;;;;;;9.07;6.03;;;;;;;;;;5014976;28;20053;-53
2023/03/16 00:03:19;;;;;;;15.20;7.70;;;;;;;;;;5015059;28;20046;-55
2023/03/16 00:05:46;;;;;;;12.55;7.57;;;;;;;;;;5014808;28;20447;-55
2023/03/16 00:08:13;;;;;;;11.88;7.05;;;;;;;;;;5022037;28;20048;-57
2023/03/16 00:10:45;;;;;;;13.55;8.00;;;;;;;;;;5034713;28;20123;-52
2023/03/16 00:13:13;;;;;;;14.35;7.28;;;;;;;;;;5034805;28;20057;-54
2023/03/16 00:15:41;;;;;;;10.80;6.45;;;;;;;;;;5034018;28;20057;-53
2023/03/16 00:18:08;;;;;;;12.40;6.65;;;;;;;;;;5027553;28;20042;-55
2023/03/16 00:20:35;;;;;;;14.18;7.13;;;;;;;;;;5014640;28;20494;-49
2023/03/16 00:23:02;;;;;;;13.68;7.68;;;;;;;;;;5014506;28;20058;-54
2023/03/16 00:25:29;;;;;;;12.55;7.53;;;;;;;;;;5014283;28;20706;-53
2023/03/16 00:27:56;;;;;;;13.25;6.90;;;;;;;;;;5026664;28;20137;-50
2023/03/16 00:30:22;;;;;;;13.98;7.60;;;;;;;;;;5014772;28;20475;-55
2023/03/16 00:32:52;;;;;;;12.52;7.55;;;;;;;;;;5014327;28;20049;-52
2023/03/16 00:35:20;;;;;;;13.10;7.68;;;;;;;;;;5014377;28;20049;-54
2023/03/16 00:37:47;;;;;;;11.93;7.45;;;;;;;;;;5018605;28;20080;-54
2023/03/16 00:40:14;;;;;;;14.38;7.60;;;;;;;;;;5033782;28;20503;-55
2023/03/16 00:42:41;;;;;;;14.57;8.05;;;;;;;;;;5033867;28;20594;-52
2023/03/16 00:45:09;;;;;;;13.57;7.90;;;;;;;;;;5033571;28;20324;-55
2023/03/16 00:47:36;;;;;;;13.60;7.88;;;;;;;;;;5033313;28;20054;-53
2023/03/16 00:50:05;;;;;;;14.63;8.60;;;;;;;;;;5033596;28;20140;-51
2023/03/16 00:52:34;;;;;;;12.10;8.00;;;;;;;;;;5033778;28;20126;-51
2023/03/16 00:55:02;;;;;;;12.88;8.00;;;;;;;;;;5033600;28;20047;-50
2023/03/16 00:57:29;;;;;;;15.30;8.85;;;;;;;;;;5032041;28;20045;-55
2023/03/16 00:59:56;;;;;;;15.88;9.23;;;;;;;;;;5018912;28;20481;-55
2023/03/16 01:02:23;;;;;;;14.25;8.60;;;;;;;;;;5033576;28;20056;-52
2023/03/16 01:04:50;;;;;;;15.32;8.60;;;;;;;;;;5033618;28;20045;-54
2023/03/16 01:07:19;;;;;;;15.23;9.00;;;;;;;;;;5018308;28;20462;-52
2023/03/16 01:09:46;;;;;;;14.82;8.77;;;;;;;;;;5013376;28;20068;-52
2023/03/16 01:12:15;;;;;;;15.02;7.97;;;;;;;;;;5013462;28;20041;-55
2023/03/16 01:14:44;;;;;;;13.68;8.15;;;;;;;;;;5021559;28;20372;-56
2023/03/16 01:17:12;;;;;;;13.43;7.60;;;;;;;;;;5033342;28;20153;-55
2023/03/16 01:19:40;;;;;;;14.38;8.18;;;;;;;;;;5013983;28;20459;-55
2023/03/16 01:22:08;;;;;;;14.43;7.55;;;;;;;;;;5013170;28;20384;-53
2023/03/16 01:24:37;;;;;;;13.48;8.18;;;;;;;;;;5013433;28;20054;-51
2023/03/16 01:27:05;;;;;;;13.13;6.97;;;;;;;;;;5014124;28;20057;-51
2023/03/16 01:29:33;;;;;;;12.25;7.93;;;;;;;;;;5033094;28;20140;-55
2023/03/16 01:32:00;;;;;;;15.43;7.97;;;;;;;;;;5033408;28;20076;-52
2023/03/16 01:34:27;;;;;;;14.13;7.60;;;;;;;;;;5032893;28;20099;-54
2023/03/16 01:36:54;;;;;;;12.55;8.00;;;;;;;;;;5032835;28;20486;-57
2023/03/16 01:39:21;;;;;;;12.95;7.68;;;;;;;;;;5013474;28;20072;-53
2023/03/16 01:41:49;;;;;;;13.88;7.90;;;;;;;;;;5013059;28;20050;-51
2023/03/16 01:44:18;;;;;;;15.82;8.80;;;;;;;;;;5016927;28;20491;-54
2023/03/16 01:46:46;;;;;;;15.88;8.73;;;;;;;;;;5032347;28;20045;-54
2023/03/16 01:49:15;;;;;;;15.10;8.55;;;;;;;;;;5032486;28;20049;-53
2023/03/16 01:51:45;;;;;;;13.30;8.68;;;;;;;;;;5032542;28;20107;-49
2023/03/16 01:54:21;;;;;;;15.95;9.35;;;;;;;;;;5083518;22;20053;-79
2023/03/16 01:56:54;;;;;;;15.73;8.13;;;;;;;;;;5038341;28;20065;-78
2023/03/16 01:59:25;;;;;;;17.80;10.38;;;;;;;;;;5037238;28;20041;-78
2023/03/16 02:01:52;;;;;;;16.90;9.73;;;;;;;;;;5055443;28;20045;-78
2023/03/16 02:04:46;;;;;;;18.60;10.13;;;;;;;;;;5057560;28;20136;-77
2023/03/16 02:07:16;;;;;;;15.40;9.63;;;;;;;;;;5044314;28;20124;-77
2023/03/16 02:09:45;;;;;;;15.85;9.65;;;;;;;;;;5040505;28;20103;-78
2023/03/16 02:12:17;;;;;;;21.08;9.98;;;;;;;;;;5047338;28;20052;-78
2023/03/16 02:14:44;;;;;;;17.45;10.20;;;;;;;;;;5044586;28;20096;-78
2023/03/16 02:17:11;;;;;;;18.63;10.73;;;;;;;;;;5054085;28;20056;-79
2023/03/16 02:19:47;;;;;;;18.20;10.95;;;;;;;;;;5053857;28;20040;-77
2023/03/16 02:22:14;;;;;;;18.30;9.60;;;;;;;;;;5047192;28;20131;-77
2023/03/16 02:24:42;;;;;;;18.65;9.88;;;;;;;;;;5055471;28;20128;-78
2023/03/16 02:27:10;;;;;;;19.48;10.40;;;;;;;;;;5052624;28;20128;-77
2023/03/16 02:29:52;;;;;;;15.98;9.70;;;;;;;;;;5052381;28;20128;-78
2023/03/16 02:32:20;;;;;;;16.85;9.65;;;;;;;;;;5045302;28;20424;-77
2023/03/16 02:34:47;;;;;;;17.00;9.40;;;;;;;;;;5032456;28;20107;-77
2023/03/16 02:37:14;;;;;;;17.77;9.55;;;;;;;;;;5033177;28;20049;-78
2023/03/16 02:39:42;;;;;;;16.83;10.55;;;;;;;;;;5033114;28;20088;-77
2023/03/16 02:42:13;;;;;;;19.92;10.00;;;;;;;;;;5035921;28;20100;-78
2023/03/16 02:44:42;;;;;;;16.45;10.35;;;;;;;;;;5043981;28;20042;-77
2023/03/16 02:47:15;;;;;;;17.45;10.43;;;;;;;;;;5037720;28;20050;-77
2023/03/16 02:49:45;;;;;;;19.00;10.75;;;;;;;;;;5035923;28;20128;-77
2023/03/16 02:52:12;;;;;;;19.25;10.38;;;;;;;;;;5036806;28;20080;-77
2023/03/16 02:54:39;;;;;;;21.30;11.13;;;;;;;;;;5044667;28;20041;-77
2023/03/16 02:57:05;;;;;;;21.75;12.40;;;;;;;;;;5054765;28;20052;-77
2023/03/16 02:59:32;;;;;;;19.65;12.55;;;;;;;;;;5055208;28;20151;-78
2023/03/16 03:01:58;;;;;;;22.25;11.82;;;;;;;;;;5053505;28;20136;-77
2023/03/16 03:04:26;;;;;;;22.25;12.15;;;;;;;;;;5047644;28;20124;-77
2023/03/16 03:06:53;;;;;;;20.65;12.05;;;;;;;;;;5033864;28;20077;-78
2023/03/16 03:09:20;;;;;;;22.40;12.60;;;;;;;;;;5021409;28;20050;-79
2023/03/16 03:11:48;;;;;;;24.88;12.50;;;;;;;;;;5024685;28;20064;-79
2023/03/16 03:14:15;;;;;;;23.77;12.18;;;;;;;;;;5046144;28;20041;-79
2023/03/16 03:16:45;;;;;;;24.50;12.93;;;;;;;;;;5016258;28;20046;-77
2023/03/16 03:19:12;;;;;;;22.20;11.48;;;;;;;;;;5016977;28;20049;-77
2023/03/16 03:21:41;;;;;;;20.13;11.52;;;;;;;;;;5020906;28;20521;-78
2023/03/16 03:24:08;;;;;;;23.23;12.60;;;;;;;;;;5017036;28;20050;-78
2023/03/16 03:26:36;;;;;;;25.92;12.88;;;;;;;;;;5042985;28;20049;-78
2023/03/16 03:29:04;;;;;;;22.88;11.80;;;;;;;;;;5056477;28;20492;-78
2023/03/16 03:31:30;;;;;;;22.48;11.88;;;;;;;;;;5058480;28;20132;-78
2023/03/16 03:33:57;;;;;;;21.65;11.43;;;;;;;;;;5060331;28;20081;-77
2023/03/16 03:36:24;;;;;;;21.00;11.95;;;;;;;;;;5053212;28;20125;-77
2023/03/16 03:38:53;;;;;;;19.08;10.35;;;;;;;;;;5038826;28;20125;-77
2023/03/16 03:41:21;;;;;;;21.20;10.48;;;;;;;;;;5040619;28;20110;-77
2023/03/16 03:43:47;;;;;;;21.90;10.95;;;;;;;;;;5039385;28;20620;-77
2023/03/16 03:46:14;;;;;;;21.90;11.43;;;;;;;;;;5056351;28;20124;-78
2023/03/16 03:48:41;;;;;;;20.40;11.02;;;;;;;;;;5040858;28;20415;-77
2023/03/16 03:51:07;;;;;;;21.52;10.77;;;;;;;;;;5039272;28;20504;-78
2023/03/16 03:53:34;;;;;;;22.40;11.02;;;;;;;;;;5038880;28;20072;-78
2023/03/16 03:56:02;;;;;;;19.67;10.55;;;;;;;;;;5039811;28;20132;-78
2023/03/16 03:58:29;;;;;;;22.05;11.55;;;;;;;;;;5044064;28;20087;-78
2023/03/16 04:00:55;;;;;;;22.85;10.90;;;;;;;;;;5045944;28;20055;-77
2023/03/16 04:03:22;;;;;;;23.23;12.05;;;;;;;;;;5059204;28;20509;-78
2023/03/16 04:05:48;;;;;;;25.65;11.98;;;;;;;;;;5057747;28;20131;-78
2023/03/16 04:08:15;;;;;;;22.02;11.30;;;;;;;;;;5046865;28;20128;-77
2023/03/16 04:10:42;;;;;;;23.15;11.90;;;;;;;;;;5038881;28;20050;-77
2023/03/16 04:13:10;;;;;;;24.40;12.07;;;;;;;;;;5038251;28;20095;-77
2023/03/16 04:15:37;;;;;;;24.55;11.90;;;;;;;;;;5047871;28;20049;-77
2023/03/16 04:18:04;;;;;;;22.17;12.05;;;;;;;;;;5050150;28;20053;-77
2023/03/16 04:20:31;;;;;;;23.65;11.18;;;;;;;;;;5057940;28;20099;-78
2023/03/16 04:22:58;;;;;;;24.48;12.73;;;;;;;;;;5058317;28;20575;-78
2023/03/16 04:25:26;;;;;;;24.77;11.73;;;;;;;;;;5058506;28;20592;-78
2023/03/16 04:27:53;;;;;;;27.13;12.55;;;;;;;;;;5053172;28;20508;-77
2023/03/16 04:30:22;;;;;;;24.35;12.52;;;;;;;;;;5056497;28;20131;-78
2023/03/16 04:32:50;;;;;;;27.23;12.60;;;;;;;;;;5058531;28;20084;-78
2023/03/16 04:35:18;;;;;;;23.00;11.82;;;;;;;;;;5054243;28;20488;-79
2023/03/16 04:37:44;;;;;;;24.38;12.52;;;;;;;;;;5039136;28;20041;-77
2023/03/16 04:40:19;;;;;;;22.55;12.43;;;;;;;;;;5058338;28;20128;-78
2023/03/16 04:42:47;;;;;;;24.65;11.82;;;;;;;;;;5058611;28;20056;-78
2023/03/16 04:45:16;;;;;;;25.02;12.32;;;;;;;;;;5049473;28;20099;-78
2023/03/16 04:47:44;;;;;;;23.17;12.23;;;;;;;;;;5038916;28;20080;-78
2023/03/16 04:50:12;;;;;;;24.65;12.70;;;;;;;;;;5048240;28;20128;-79
2023/03/16 04:52:38;;;;;;;26.40;12.55;;;;;;;;;;5043362;28;20527;-79
2023/03/16 04:55:06;;;;;;;25.33;12.57;;;;;;;;;;5040256;28;20053;-78
2023/03/16 04:57:33;;;;;;;25.35;12.13;;;;;;;;;;5039559;28;20053;-78
2023/03/16 05:00:00;;;;;;;26.20;13.20;;;;;;;;;;5047937;28;20501;-79
2023/03/16 05:02:27;;;;;;;25.00;13.32;;;;;;;;;;5041313;28;20492;-78
2023/03/16 05:04:56;;;;;;;26.00;12.23;;;;;;;;;;5041321;28;20079;-78
2023/03/16 05:07:23;;;;;;;29.63;14.27;;;;;;;;;;5026517;28;20476;-78
2023/03/16 05:09:50;;;;;;;25.52;12.30;;;;;;;;;;5034623;28;20091;-78
2023/03/16 05:12:16;;;;;;;29.58;13.18;;;;;;;;;;5059043;28;20041;-78
2023/03/16 05:14:45;;;;;;;24.58;12.73;;;;;;;;;;5055181;28;20128;-78
2023/03/16 05:17:13;;;;;;;24.02;12.65;;;;;;;;;;5040245;28;20045;-77
2023/03/16 05:19:41;;;;;;;24.83;12.93;;;;;;;;;;5041809;28;20083;-77
2023/03/16 05:22:12;;;;;;;20.98;11.10;;;;;;;;;;5044912;28;20077;-77
2023/03/16 05:24:41;;;;;;;23.65;12.13;;;;;;;;;;5054727;28;20045;-77
2023/03/16 05:27:08;;;;;;;22.55;12.68;;;;;;;;;;5059523;28;20048;-79
2023/03/16 05:29:35;;;;;;;22.33;12.15;;;;;;;;;;5059776;28;20134;-79
2023/03/16 05:32:01;;;;;;;26.23;12.68;;;;;;;;;;5041450;28;20113;-79
2023/03/16 05:34:28;;;;;;;21.67;11.70;;;;;;;;;;5038893;28;20050;-78
2023/03/16 05:36:55;;;;;;;21.60;11.77;;;;;;;;;;5036566;28;20466;-78
2023/03/16 05:39:23;;;;;;;22.67;11.70;;;;;;;;;;5036176;28;20045;-78
2023/03/16 05:41:49;;;;;;;21.45;11.05;;;;;;;;;;5043825;28;20420;-78
2023/03/16 05:44:16;;;;;;;20.20;11.00;;;;;;;;;;5036885;28;20520;-78
2023/03/16 05:46:44;;;;;;;23.63;10.90;;;;;;;;;;5056610;28;20504;-78
2023/03/16 05:49:11;;;;;;;23.73;11.05;;;;;;;;;;5056663;28;20049;-78
2023/03/16 05:51:38;;;;;;;21.60;10.93;;;;;;;;;;5049068;28;20159;-78
2023/03/16 05:54:05;;;;;;;24.40;11.95;;;;;;;;;;5017568;28;20141;-78
2023/03/16 05:56:33;;;;;;;24.55;12.13;;;;;;;;;;5017621;28;20498;-78
2023/03/16 05:59:00;;;;;;;20.23;10.13;;;;;;;;;;5017863;28;20050;-78
2023/03/16 06:01:26;;;;;;;22.95;11.48;;;;;;;;;;5023182;28;20044;-79
2023/03/16 06:03:53;;;;;;;20.80;10.95;;;;;;;;;;5057308;28;20049;-78
2023/03/16 06:06:21;;;;;;;23.48;11.50;;;;;;;;;;5051110;28;20432;-78
2023/03/16 06:08:48;;;;;;;25.33;11.32;;;;;;;;;;5040055;28;20054;-78
2023/03/16 06:11:15;;;;;;;23.73;11.52;;;;;;;;;;5039732;28;20048;-78
2023/03/16 06:13:43;;;;;;;23.58;11.13;;;;;;;;;;5046644;28;20052;-78
2023/03/16 06:16:10;;;;;;;23.25;12.30;;;;;;;;;;5055641;28;20080;-78
2023/03/16 06:18:38;;;;;;;23.75;10.70;;;;;;;;;;5059849;28;20041;-79
2023/03/16 06:21:05;;;;;;;21.45;11.10;;;;;;;;;;5062644;28;20059;-78
2023/03/16 06:23:32;;;;;;;23.33;12.45;;;;;;;;;;5055500;28;20084;-78
2023/03/16 06:25:59;;;;;;;21.25;10.68;;;;;;;;;;5048189;28;20080;-78
2023/03/16 06:28:26;;;;;;;21.58;11.65;;;;;;;;;;5048635;28;20073;-78
2023/03/16 06:30:55;;;;;;;19.98;10.05;;;;;;;;;;5041686;28;20237;-78
2023/03/16 06:33:22;;;;;;;23.20;11.13;;;;;;;;;;5047290;28;20114;-78
2023/03/16 06:35:49;;;;;;;23.15;11.05;;;;;;;;;;5039121;28;20105;-79
2023/03/16 06:38:16;;;;;;;20.40;11.65;;;;;;;;;;5039842;28;20053;-78
2023/03/16 06:40:42;;;;;;;23.50;11.27;;;;;;;;;;5039785;28;20096;-78
2023/03/16 06:43:09;;;;;;;19.58;11.13;;;;;;;;;;5040509;28;20582;-78
2023/03/16 06:45:36;;;;;;;20.35;11.05;;;;;;;;;;5056268;28;20045;-79
2023/03/16 06:48:05;;;;;;;21.05;10.13;;;;;;;;;;5059575;28;20068;-78
2023/03/16 06:50:32;;;;;;;21.98;11.15;;;;;;;;;;5060003;28;20049;-78
2023/03/16 06:52:58;;;;;;;19.52;10.52;;;;;;;;;;5059264;28;20488;-78
2023/03/16 06:55:25;;;;;;;23.45;11.55;;;;;;;;;;5049199;28;20131;-77
2023/03/16 06:57:52;;;;;;;18.55;10.15;;;;;;;;;;5058080;28;20051;-78
2023/03/16 07:00:19;;;;;;;19.95;11.02;;;;;;;;;;5058134;28;20056;-77
2023/03/16 07:02:46;;;;;;;20.83;11.23;;;;;;;;;;5057643;28;20040;-77
2023/03/16 07:05:14;;;;;;;20.90;10.50;;;;;;;;;;5052378;28;20080;-77
2023/03/16 07:07:41;;;;;;;20.38;10.73;;;;;;;;;;5051776;28;20047;-77
2023/03/16 07:10:10;;;;;;;22.65;11.02;;;;;;;;;;5059957;28;20049;-77
2023/03/16 07:12:36;;;;;;;21.35;11.75;;;;;;;;;;5060126;28;20057;-77
2023/03/16 07:15:04;;;;;;;20.02;10.18;;;;;;;;;;5057151;28;20076;-77
2023/03/16 07:17:31;;;;;;;18.33;9.95;;;;;;;;;;5042244;28;20065;-77
2023/03/16 07:19:57;;;;;;;19.13;10.77;;;;;;;;;;5042076;28;20051;-78
2023/03/16 07:22:25;;;;;;;19.48;9.85;;;;;;;;;;5042154;28;20077;-77
2023/03/16 07:24:56;;;;;;;21.40;10.90;;;;;;;;;;5042592;28;20073;-77
2023/03/16 07:27:23;;;;;;;19.60;9.57;;;;;;;;;;5053962;28;20056;-78
2023/03/16 07:29:50;;;;;;;20.30;9.93;;;;;;;;;;5062011;28;20049;-77
2023/03/16 07:32:17;;;;;;;19.17;9.90;;;;;;;;;;5060251;28;20045;-77
2023/03/16 07:34:44;;;;;;;21.00;10.52;;;;;;;;;;5059870;28;20049;-78
2023/03/16 07:37:11;;;;;;;19.25;9.02;;;;;;;;;;5052499;28;20041;-77
2023/03/16 07:39:39;;;;;;;22.48;11.55;;;;;;;;;;5041409;28;20049;-77
2023/03/16 07:42:06;;;;;;;20.40;10.32;;;;;;;;;;5039480;28;20117;-78
2023/03/16 07:44:32;;;;;;;21.10;10.27;;;;;;;;;;5039106;28;20059;-78
2023/03/16 07:46:59;;;;;;;24.20;11.43;;;;;;;;;;5043967;28;20100;-78
2023/03/16 07:49:26;;;;;;;23.38;10.65;;;;;;;;;;5051346;28;20065;-78
2023/03/16 07:51:53;;;;;;;23.35;11.25;;;;;;;;;;5041276;28;20471;-77
2023/03/16 07:54:20;;;;;;;23.10;11.35;;;;;;;;;;5081118;22;20045;-52
2023/03/16 07:56:48;;;;;;;20.08;11.23;;;;;;;;;;5054339;28;20052;-56
2023/03/16 07:59:15;;;;;;;22.38;11.18;;;;;;;;;;5042808;28;20351;-56
2023/03/16 08:01:42;;;;;;;23.55;11.13;;;;;;;;;;5034846;28;20045;-55
2023/03/16 08:04:11;;;;;;;19.55;10.63;;;;;;;;;;5034123;28;20060;-57
2023/03/16 08:06:38;;;;;;;20.55;10.65;;;;;;;;;;5034493;28;20045;-55
2023/03/16 08:09:05;;;;;;;21.80;11.15;;;;;;;;;;5038066;28;20096;-53
2023/03/16 08:11:32;;;;;;;20.73;10.70;;;;;;;;;;5034637;28;20050;-56
2023/03/16 08:14:00;;;;;;;20.17;10.57;;;;;;;;;;5034247;28;20103;-56
2023/03/16 08:16:27;;;;;;;21.85;10.05;;;;;;;;;;5033707;28;20486;-54
2023/03/16 08:18:57;;;;;;;19.48;10.48;;;;;;;;;;5032975;28;20509;-57
2023/03/16 08:21:24;;;;;;;23.20;11.32;;;;;;;;;;5032696;28;20053;-54
2023/03/16 08:23:50;;;;;;;20.83;10.30;;;;;;;;;;5031111;28;20180;-58
2023/03/16 08:26:19;;;;;;;22.90;10.77;;;;;;;;;;5031609;28;20072;-57
2023/03/16 08:28:47;;;;;;;21.02;11.15;;;;;;;;;;5032083;28;20473;-57
2023/03/16 08:31:15;;;;;;;20.52;10.60;;;;;;;;;;5032315;28;20053;-55
2023/03/16 08:33:43;;;;;;;18.98;9.80;;;;;;;;;;5032327;28;20053;-55
2023/03/16 08:36:12;;;;;;;22.30;11.02;;;;;;;;;;5032224;28;20439;-55
2023/03/16 08:38:40;;;;;;;19.23;9.60;;;;;;;;;;5032297;28;20465;-55
2023/03/16 08:41:07;;;;;;;24.73;10.32;;;;;;;;;;5032011;28;20433;-53
2023/03/16 08:43:36;;;;;;;20.10;10.00;;;;;;;;;;5031806;28;20095;-56
2023/03/16 08:46:04;;;;;;;18.50;8.77;;;;;;;;;;5032067;28;20056;-55
2023/03/16 08:48:33;;;;;;;20.60;9.82;;;;;;;;;;5031866;28;20080;-55
2023/03/16 08:51:02;;;;;;;19.33;9.75;;;;;;;;;;5023035;28;20088;-57
2023/03/16 08:53:29;;;;;;;19.83;10.30;;;;;;;;;;5019395;28;20054;-66
2023/03/16 08:56:03;;;;;;;20.40;9.60;;;;;;;;;;5029603;28;20108;-58
2023/03/16 08:58:31;;;;;;;19.35;9.32;;;;;;;;;;5032403;28;20414;-57
2023/03/16 09:00:58;;;;;;;23.48;10.93;;;;;;;;;;5031917;28;20081;-67
2023/03/16 09:03:25;;;;;;;23.55;11.18;;;;;;;;;;5031853;28;20465;-56
2023/03/16 09:05:53;;;;;;;24.52;11.02;;;;;;;;;;5031830;28;20172;-63
2023/03/16 09:08:20;;;;;;;28.92;11.93;;;;;;;;;;5031713;28;20045;-61
2023/03/16 09:10:47;;;;;;;51.45;20.95;;;;;;;;;;5031847;28;20053;-65
2023/03/16 09:13:15;;;;;;;32.25;14.98;;;;;;;;;;5031416;28;20053;-59
2023/03/16 09:15:41;;;;;;;23.65;11.38;;;;;;;;;;5020627;28;20054;-56
2023/03/16 09:18:09;;;;;;;31.58;12.70;;;;;;;;;;5011927;28;20100;-56
2023/03/16 09:20:36;;;;;;;32.45;14.50;;;;;;;;;;5012276;28;20060;-56
2023/03/16 09:23:04;;;;;;;25.98;12.82;;;;;;;;;;5012030;28;20057;-54
2023/03/16 09:25:34;;;;;;;30.88;12.32;;;;;;;;;;5011865;28;20084;-54
2023/03/16 09:28:01;;;;;;;23.08;10.50;;;;;;;;;;5011097;28;20511;-55
2023/03/16 09:30:28;;;;;;;25.38;10.88;;;;;;;;;;5011572;28;20053;-53
2023/03/16 09:32:55;;;;;;;20.13;10.25;;;;;;;;;;5016050;28;20483;-52
2023/03/16 09:35:22;;;;;;;20.20;9.73;;;;;;;;;;5031659;28;20053;-55
2023/03/16 09:37:50;;;;;;;18.85;9.60;;;;;;;;;;5031465;28;20046;-52
2023/03/16 09:40:25;;;;;;;23.65;10.10;;;;;;;;;;5031062;28;20049;-54
2023/03/16 09:43:08;;;;;;;24.45;10.63;;;;;;;;;;5031180;28;20064;-56
2023/03/16 09:45:42;;;;;;;21.02;10.75;;;;;;;;;;5030029;28;20136;-55
2023/03/16 09:48:10;;;;;;;20.60;10.88;;;;;;;;;;5011627;28;20053;-55
2023/03/16 09:50:40;;;;;;;20.80;10.10;;;;;;;;;;5013782;28;20092;-53
2023/03/16 09:53:17;;;;;;;21.80;11.38;;;;;;;;;;5030357;28;20096;-56
2023/03/16 09:55:48;;;;;;;17.60;9.25;;;;;;;;;;5030547;28;20049;-53
2023/03/16 09:58:17;;;;;;;;;;;;;;;;;;5031107;28;20046;-57
2023/03/16 10:00:53;;;;;;;22.67;10.02;;;;;;;;;;5030476;28;19931;-53
2023/03/16 10:03:35;;;;;;;20.90;10.07;;;;;;;;;;5016829;28;20050;-56
2023/03/16 10:06:04;;;;;;;20.65;10.63;;;;;;;;;;5010523;28;20061;-55
2023/03/16 10:08:37;;;;;;;20.38;10.32;;;;;;;;;;5018034;28;20048;-56
2023/03/16 10:11:18;;;;;;;19.15;10.13;;;;;;;;;;5010404;28;20069;-57
2023/03/16 10:13:47;;;;;;;;;;;;;;;;;;5011841;28;20052;-55
2023/03/16 10:16:18;;;;;;;20.33;8.23;;;;;;;;;;5010960;28;19922;-56
2023/03/16 10:18:47;;;;;;;17.88;9.43;;;;;;;;;;5010893;28;20499;-54
2023/03/16 10:21:15;;;;;;;20.80;10.75;;;;;;;;;;5010690;28;20523;-55
2023/03/16 10:23:42;;;;;;;19.83;9.70;;;;;;;;;;5010946;28;20141;-54
2023/03/16 10:26:18;;;;;;;19.52;8.90;;;;;;;;;;5010696;28;20050;-56
2023/03/16 10:28:45;;;;;;;17.75;8.90;;;;;;;;;;5010858;28;20050;-55
2023/03/16 10:31:13;;;;;;;16.98;10.15;;;;;;;;;;5009548;28;20081;-52
2023/03/16 10:33:40;;;;;;;22.23;10.82;;;;;;;;;;5025748;28;20136;-57
2023/03/16 10:36:29;;;;;;;20.23;10.23;;;;;;;;;;5021412;28;20676;-54
2023/03/16 10:38:59;;;;;;;20.05;9.52;;;;;;;;;;5010148;28;20056;-54
2023/03/16 10:41:30;;;;;;;21.88;9.88;;;;;;;;;;5010310;28;20042;-55
2023/03/16 10:44:05;;;;;;;17.30;9.50;;;;;;;;;;5010683;28;20057;-57
2023/03/16 10:46:39;;;;;;;19.15;9.50;;;;;;;;;;5010615;28;20046;-57
2023/03/16 10:49:20;;;;;;;24.10;10.00;;;;;;;;;;5011020;28;20062;-56
2023/03/16 10:51:47;;;;;;;25.25;11.07;;;;;;;;;;5010019;28;20054;-55
2023/03/16 10:54:17;;;;;;;20.35;10.45;;;;;;;;;;5010754;28;20054;-55
2023/03/16 10:56:49;;;;;;;20.33;9.77;;;;;;;;;;5010730;28;20054;-54
2023/03/16 10:59:28;;;;;;;27.25;11.73;;;;;;;;;;5010585;28;20511;-56
2023/03/16 11:01:55;;;;;;;16.20;9.13;;;;;;;;;;5010456;28;20462;-54
2023/03/16 11:04:23;;;;;;;16.33;8.63;;;;;;;;;;5010671;28;20550;-56
2023/03/16 11:06:54;;;;;;;18.02;8.93;;;;;;;;;;5010314;28;20146;-55
2023/03/16 11:09:24;;;;;;;15.43;8.63;;;;;;;;;;5010428;28;20145;-55
2023/03/16 11:11:53;;;;;;;17.60;8.77;;;;;;;;;;5010874;28;20085;-56
2023/03/16 11:14:23;;;;;;;18.75;8.98;;;;;;;;;;5010958;28;20061;-57
2023/03/16 11:16:57;;;;;;;19.45;9.82;;;;;;;;;;5010754;28;20053;-57
2023/03/16 11:19:29;;;;;;;18.77;9.18;;;;;;;;;;5015899;28;20077;-56
2023/03/16 11:22:02;;;;;;;20.65;9.52;;;;;;;;;;5026755;28;20060;-55
2023/03/16 11:24:37;;;;;;;18.00;8.70;;;;;;;;;;5015391;28;20096;-56
2023/03/16 11:27:16;;;;;;;19.05;8.98;;;;;;;;;;5029099;28;20053;-54
2023/03/16 11:29:57;;;;;;;17.85;9.32;;;;;;;;;;5029439;28;20049;-56
2023/03/16 11:32:29;;;;;;;21.70;10.00;;;;;;;;;;5029406;28;20053;-56
2023/03/16 11:34:56;;;;;;;20.55;10.00;;;;;;;;;;5029515;28;20108;-56
2023/03/16 11:37:40;;;;;;;18.13;9.35;;;;;;;;;;5029202;28;20111;-54
2023/03/16 11:40:18;;;;;;;16.63;8.70;;;;;;;;;;5020248;28;20129;-54
2023/03/16 11:43:00;;;;;;;16.48;8.38;;;;;;;;;;5029046;28;20041;-54
2023/03/16 11:45:34;;;;;;;18.88;8.15;;;;;;;;;;5029703;28;20054;-57
2023/03/16 11:48:20;;;;;;;18.35;9.63;;;;;;;;;;5029754;28;20069;-54
2023/03/16 11:50:58;;;;;;;15.30;8.63;;;;;;;;;;5031812;28;20054;-55
2023/03/16 11:53:42;;;;;;;15.75;8.73;;;;;;;;;;5032777;28;20387;-57
2023/03/16 11:56:18;;;;;;;14.75;7.93;;;;;;;;;;5032515;28;20129;-55
2023/03/16 11:59:20;;;;;;;14.90;7.90;;;;;;;;;;5032979;28;20046;-55
2023/03/16 12:02:05;;;;;;;16.20;8.85;;;;;;;;;;5022025;28;20084;-55
2023/03/16 12:04:45;;;;;;;15.40;8.18;;;;;;;;;;5030054;28;20120;-55
2023/03/16 12:07:28;;;;;;;15.60;8.02;;;;;;;;;;5020545;28;20060;-57
2023/03/16 12:10:22;;;;;;;15.27;7.88;;;;;;;;;;5033370;28;20454;-57
2023/03/16 12:13:02;;;;;;;14.82;8.50;;;;;;;;;;5012430;28;20446;-57
2023/03/16 12:15:43;;;;;;;16.73;8.57;;;;;;;;;;5031984;28;20049;-54
2023/03/16 12:18:17;;;;;;;14.95;8.23;;;;;;;;;;5019004;28;20592;-55
2023/03/16 12:20:50;;;;;;;18.45;9.25;;;;;;;;;;5031848;28;20490;-55
2023/03/16 12:23:22;;;;;;;15.57;9.18;;;;;;;;;;5032351;28;20119;-56
2023/03/16 12:25:51;;;;;;;16.08;8.20;;;;;;;;;;5028147;28;20058;-55
2023/03/16 12:28:22;;;;;;;13.98;8.15;;;;;;;;;;5022796;28;20068;-57
2023/03/16 12:30:59;;;;;;;13.13;7.40;;;;;;;;;;5034044;28;20109;-55
2023/03/16 12:33:39;;;;;;;13.82;7.65;;;;;;;;;;5017914;28;20045;-65
2023/03/16 12:36:24;;;;;;;12.35;6.82;;;;;;;;;;5016883;28;20046;-54
2023/03/16 12:38:57;;;;;;;12.23;6.78;;;;;;;;;;5037355;28;20103;-56
2023/03/16 12:41:35;;;;;;;14.15;7.03;;;;;;;;;;5038566;28;20056;-56
2023/03/16 12:44:12;;;;;;;12.15;6.82;;;;;;;;;;5038633;28;20091;-54
2023/03/16 12:46:47;;;;;;;13.63;8.27;;;;;;;;;;5039395;28;20085;-55
2023/03/16 12:49:14;;;;;;;14.32;6.78;;;;;;;;;;5037383;28;20045;-63
2023/03/16 12:51:43;;;;;;;16.17;7.63;;;;;;;;;;5018663;28;20085;-54
2023/03/16 12:54:20;;;;;;;11.43;6.53;;;;;;;;;;5024830;28;20045;-65
2023/03/16 12:56:49;;;;;;;11.00;6.82;;;;;;;;;;5031748;28;20052;-56
2023/03/16 12:59:18;;;;;;;9.90;5.88;;;;;;;;;;5038801;28;20531;-56
2023/03/16 13:01:50;;;;;;;10.98;6.07;;;;;;;;;;5038929;28;20092;-53
2023/03/16 13:04:20;;;;;;;12.18;6.97;;;;;;;;;;5039162;28;20052;-53
2023/03/16 13:06:49;;;;;;;12.85;7.43;;;;;;;;;;5030208;28;20418;-57
2023/03/16 13:09:20;;;;;;;12.32;6.22;;;;;;;;;;5031868;28;20133;-55
2023/03/16 13:11:50;;;;;;;;;;;;;;;;;;5019256;28;20108;-56
2023/03/16 13:14:33;;;;;;;9.80;5.35;;;;;;;;;;5028167;28;19936;-58
2023/03/16 13:17:07;;;;;;;11.80;6.10;;;;;;;;;;5030107;28;20041;-57
2023/03/16 13:19:36;;;;;;;11.00;5.25;;;;;;;;;;5032872;28;20147;-55
2023/03/16 13:22:18;;;;;;;10.10;5.85;;;;;;;;;;5029875;28;20089;-56
2023/03/16 13:24:51;;;;;;;8.93;4.97;;;;;;;;;;5024883;28;20049;-57
2023/03/16 13:27:25;;;;;;;7.10;3.63;;;;;;;;;;5035499;28;20735;-57
2023/03/16 13:29:54;;;;;;;8.35;4.43;;;;;;;;;;5033946;28;20053;-57
2023/03/16 13:32:24;;;;;;;10.23;4.55;;;;;;;;;;5035300;28;20110;-58
2023/03/16 13:34:53;;;;;;;9.23;4.32;;;;;;;;;;5036710;28;20045;-57
2023/03/16 13:37:22;;;;;;;9.52;4.65;;;;;;;;;;5034214;28;20556;-58
2023/03/16 13:39:53;;;;;;;9.73;4.70;;;;;;;;;;5036464;28;20056;-56
2023/03/16 13:42:22;;;;;;;6.03;3.70;;;;;;;;;;5035595;28;20421;-56
2023/03/16 13:44:53;;;;;;;7.82;3.90;;;;;;;;;;5037423;28;20463;-57
2023/03/16 13:47:20;;;;;;;;;;;;;;;;;;5036727;28;20049;-56
2023/03/16 13:49:50;;;;;;;7.18;4.47;;;;;;;;;;5036410;28;20297;-57
2023/03/16 13:52:24;;;;;;;7.82;5.22;;;;;;;;;;5035234;28;20054;-57
2023/03/16 13:54:51;;;;;;;8.98;3.92;;;;;;;;;;5035996;28;20128;-57
2023/03/16 13:57:21;;;;;;;8.05;4.35;;;;;;;;;;5035230;28;20121;-53
2023/03/16 13:59:48;;;;;;;8.85;4.75;;;;;;;;;;5036015;28;20049;-56
2023/03/16 14:02:18;;;;;;;10.20;4.50;;;;;;;;;;5036230;28;20060;-54
2023/03/16 14:04:45;;;;;;;9.23;4.88;;;;;;;;;;5036514;28;20453;-54
2023/03/16 14:07:20;;;;;;;8.50;4.25;;;;;;;;;;5033055;28;20072;-57
2023/03/16 14:09:48;;;;;;;7.22;4.38;;;;;;;;;;5037477;28;20052;-59
2023/03/16 14:12:17;;;;;;;7.97;4.32;;;;;;;;;;5037499;28;20434;-55
2023/03/16 14:14:48;;;;;;;17.10;4.88;;;;;;;;;;5036686;28;20080;-56
2023/03/16 14:17:18;;;;;;;6.50;4.28;;;;;;;;;;5036103;28;20045;-54
2023/03/16 14:19:47;;;;;;;8.75;4.15;;;;;;;;;;5032068;28;20049;-54
2023/03/16 14:22:19;;;;;;;6.53;3.58;;;;;;;;;;5025005;28;20537;-55
2023/03/16 14:24:51;;;;;;;7.43;3.70;;;;;;;;;;5037416;28;20064;-56
2023/03/16 14:27:27;;;;;;;8.63;3.97;;;;;;;;;;5037412;28;20104;-55
2023/03/16 14:29:59;;;;;;;7.68;4.20;;;;;;;;;;5036861;28;20045;-57
2023/03/16 14:32:28;;;;;;;10.00;4.15;;;;;;;;;;5036650;28;20057;-56
2023/03/16 14:35:11;;;;;;;8.23;4.85;;;;;;;;;;5036708;28;20076;-55
2023/03/16 14:37:41;;;;;;;8.25;4.47;;;;;;;;;;5029928;28;20055;-55
2023/03/16 14:40:21;;;;;;;7.45;4.40;;;;;;;;;;5035421;28;20118;-57